This is the latest recevied weather packets stored in our database for station/object KRYY. If no packets are shown the sender has not sent any weather packets the latest 1 day(s).
| Time | Temp. | Humidity | Pressure | Rain* | Wind** | Luminosity | Snow |
|---|---|---|---|---|---|---|---|
| 1778096018 | 25.56° C | 57% | 1014.6 hPa | - | - | - | - |
| 1778093021 | 25.56° C | 57% | 1014.9 hPa | - | - | - | - |
| 1778091822 | 25.56° C | 57% | 1014.9 hPa | - | - | - | - |
| 1778090018 | 25.56° C | 57% | 1014.9 hPa | - | - | - | - |
| 1778086424 | 25° C | 61% | 1014.9 hPa | - | - | - | - |
| 1778085820 | 22.78° C | 69% | 1015.9 hPa | - | - | - | - |
| 1778085222 | 22.78° C | 69% | 1015.9 hPa | - | - | - | - |
| 1778082219 | 20° C | 82% | 1016.6 hPa | - | - | - | - |
| 1778081620 | 20° C | 82% | 1016.6 hPa | - | - | - | - |
| 1778079219 | 20° C | 82% | 1016.6 hPa | - | - | - | - |
| 1778078020 | 20.56° C | 73% | 1015.9 hPa | - | - | - | - |
| 1778076218 | 20.56° C | 73% | 1015.9 hPa | - | - | - | - |
| 1778075017 | 18.89° C | 82% | 1014.9 hPa | - | - | - | - |
| 1778074415 | 18.89° C | 82% | 1014.9 hPa | - | - | - | - |
| 1778073817 | 18.89° C | 82% | 1014.9 hPa | - | - | - | - |
| 1778070817 | 18.89° C | 82% | 1014.6 hPa | - | - | - | - |
| 1778069018 | 18.89° C | 82% | 1014.6 hPa | - | - | - | - |
| 1778068419 | 18.89° C | 82% | 1014.6 hPa | - | - | - | - |
| 1778067818 | 18.89° C | 82% | 1014.2 hPa | - | - | - | - |
| 1778064818 | 18.89° C | 82% | 1014.2 hPa | - | - | - | - |
| 1778063618 | 18.89° C | 77% | 1013.2 hPa | - | - | - | - |
| 1778062419 | 18.89° C | 77% | 1013.2 hPa | - | - | - | - |
| 1778061820 | 18.89° C | 77% | 1013.2 hPa | - | - | - | - |
| 1778061221 | 18.89° C | 77% | 1013.2 hPa | - | - | - | - |
| 1778060743 | 18.89° C | 72% | 1013.2 hPa | - | - | - | - |
* Rain since midnight (hover to see other rain measurements)
** Current wind speed in m/s (hover to see current wind gust speed)